EDT,Max TemperatureF,Mean TemperatureF,Min TemperatureF,Max Dew PointF,MeanDew PointF,Min DewpointF,Max Humidity, Mean Humidity, Min Humidity, Max Sea Level PressureIn, Mean Sea Level PressureIn, Min Sea Level PressureIn, Max VisibilityMiles, Mean VisibilityMiles, Min VisibilityMiles, Max Wind SpeedMPH, Mean Wind SpeedMPH, Max Gust SpeedMPH,PrecipitationIn, CloudCover, Events, WindDirDegrees
2013-3-1,37,35,32,32,29,23,96,84,72,29.79,29.70,29.61,10,7,2,13,4,17,0.01,8,Snow,29
2013-3-2,34,28,22,28,24,17,92,78,63,29.80,29.76,29.72,10,5,1,14,8,20,T,8,Snow,346
2013-3-3,30,26,22,25,20,15,88,76,63,29.78,29.74,29.68,10,5,1,13,4,15,0.01,8,Snow,338
2013-3-4,36,28,20,19,17,15,84,66,47,29.93,29.80,29.73,10,10,8,18,5,24,T,8,Snow,341
2013-3-5,38,30,22,25,21,17,88,73,58,30.12,30.06,29.94,10,10,10,14,5,17,0.00,5,,16
2013-3-6,40,31,21,28,24,20,92,70,48,30.18,30.13,30.09,10,10,8,22,9,26,0.00,8,,42
2013-3-7,37,33,28,28,25,19,92,72,52,30.20,30.16,30.12,10,4,0,15,8,18,0.07,8,Fog-Snow,6
2013-3-8,42,35,28,27,24,22,92,69,45,30.32,30.19,30.12,10,6,1,24,10,30,0.03,5,Snow,3
2013-3-9,50,35,19,25,21,17,91,61,31,30.37,30.34,30.30,10,10,10,9,2,10,0.00,0,,76
2013-3-10,66,44,24,25,21,18,75,47,19,30.37,30.27,30.17,10,10,10,12,5,17,0.00,1,,199
2013-3-11,49,47,45,36,33,30,65,59,53,30.21,30.11,29.99,10,10,10,15,9,18,0.00,2,,202
2013-3-12,52,44,36,50,45,31,96,83,70,30.01,29.78,29.66,10,4,1,12,5,23,1.82,8,Rain,190
2013-3-13,45,39,33,32,24,17,89,61,33,29.86,29.82,29.78,10,10,10,15,6,20,0.00,6,,256
2013-3-14,33,28,23,18,11,4,65,53,40,29.94,29.86,29.81,10,9,1,22,10,28,T,7,Snow,285
2013-3-15,34,26,17,30,21,4,85,64,42,29.97,29.73,29.60,10,6,0,21,7,28,T,6,Fog-Snow,230
2013-3-16,32,23,14,16,13,10,88,69,49,29.95,29.87,29.81,10,10,6,12,4,16,T,6,Snow,36
2013-3-17,34,24,14,15,7,-2,80,53,26,30.38,30.13,29.94,10,10,10,22,8,28,0.00,1,,337
2013-3-18,35,23,10,26,9,2,92,58,23,30.48,30.32,30.14,10,8,1,14,2,17,0.16,2,Snow,141
2013-3-19,34,30,25,31,28,19,92,84,75,30.09,29.81,29.71,10,2,0,21,5,29,0.71,8,Fog-Rain-Snow,350
2013-3-20,36,27,18,20,17,11,84,64,44,29.81,29.77,29.73,10,10,8,18,8,26,0.00,4,,220
2013-3-21,36,23,9,18,13,5,92,67,41,29.81,29.74,29.67,10,10,5,13,4,17,0.00,3,,177
2013-3-22,36,24,12,25,18,8,80,64,47,29.81,29.72,29.66,10,8,1,15,4,20,T,6,Snow,223
2013-3-23,40,31,22,19,17,14,81,58,34,29.88,29.80,29.74,10,10,7,26,11,36,T,6,Snow,280
2013-3-24,40,34,28,23,20,18,69,57,44,29.91,29.85,29.79,10,10,10,17,9,22,0.00,6,,345
2013-3-25,42,34,26,27,23,20,75,61,46,29.81,29.68,29.57,10,10,10,14,6,17,T,4,,18
2013-3-26,45,34,23,29,23,17,82,59,36,29.86,29.74,29.61,10,10,9,17,4,22,0.00,6,,30
2013-3-27,49,36,23,27,24,19,88,61,34,29.95,29.88,29.84,10,10,10,16,5,20,0.00,6,,325
2013-3-28,50,41,32,32,29,26,89,66,42,30.10,30.02,29.95,10,10,10,13,3,18,T,8,,352
2013-3-29,48,37,25,31,27,22,92,67,42,30.13,30.10,30.05,10,10,10,14,2,16,T,5,Rain,313
2013-3-30,55,39,23,29,21,13,92,56,20,30.15,30.11,30.05,10,10,8,18,3,22,0.00,0,,345
2013-3-31,56,39,22,39,27,18,89,58,27,30.12,29.95,29.74,10,9,4,25,7,35,0.30,3,Rain,179